대문
인공위성 심상 15 일 일기 예보기후바람 예보 사이클론 번개 공항FAQ 회보 프로젝트 소개
날씨 : 유럽 아프리카 북아메리카 남아메리카 아시아 오스트레일리아-오세아니아 다른 사람
언어 접촉

청도, 중국

위도: 36-04N, 경도: 120-20E, 해발고도: 77 m


METAR: ZSQD 242300Z 16006MPS CAVOK 17/12 Q1020 NOSIG
short-TAF: 구식인 (61525 시간)
long-TAF: ZSQD 241510Z 2418/2518 17006MPS 5000 BR NSC TX22/2506Z TN12/20Z

시간: 07:49 (23:49 UTC)

날씨관측

보고는 전에 49 분 제출되었다: 23:00 UTC  
바람 12 kt   남남동
온도 17°C
습도 72%
기압 1020 hPa
시정 10 km 이상
운고 및 시정 양호한 기상

단위계

날씨예보

보고는 전에 7 시간 그리고 46 분 제출되었다: 16:03 UTC  
예보기간[UTC] : 24일 18시 ~ 25일 18시
바람 12 kt  
시정 5000 m
박무
이 위치에 정보는 a를 조건으로 하여 이다 포기
날씨 : 유럽 아프리카 북아메리카 남아메리카 아시아 오스트레일리아-오세아니아 다른 사람
인공위성 심상 15 일 일기 예보기후바람 예보 사이클론 번개 공항FAQ 언어 접촉 회보 프로젝트 소개